sensor_id;sensor_type;location;lat;lon;timestamp;temperature;humidity
66506;HTU21D;53332;51.082;5.832;2023-07-13T00:02:21;18.97;72.67
66506;HTU21D;53332;51.082;5.832;2023-07-13T00:04:47;18.94;73.35
66506;HTU21D;53332;51.082;5.832;2023-07-13T00:07:13;18.86;74.12
66506;HTU21D;53332;51.082;5.832;2023-07-13T00:09:40;18.83;74.57
66506;HTU21D;53332;51.082;5.832;2023-07-13T00:12:26;18.80;74.58
66506;HTU21D;53332;51.082;5.832;2023-07-13T00:14:52;18.74;74.67
66506;HTU21D;53332;51.082;5.832;2023-07-13T00:17:18;18.71;74.77
66506;HTU21D;53332;51.082;5.832;2023-07-13T00:19:44;18.68;75.07
66506;HTU21D;53332;51.082;5.832;2023-07-13T00:22:09;18.67;75.18
66506;HTU21D;53332;51.082;5.832;2023-07-13T00:24:35;18.62;75.50
66506;HTU21D;53332;51.082;5.832;2023-07-13T00:27:01;18.59;75.86
66506;HTU21D;53332;51.082;5.832;2023-07-13T00:29:26;18.57;75.86
66506;HTU21D;53332;51.082;5.832;2023-07-13T00:31:52;18.54;75.94
66506;HTU21D;53332;51.082;5.832;2023-07-13T00:34:18;18.53;76.21
66506;HTU21D;53332;51.082;5.832;2023-07-13T00:36:43;18.49;76.37
66506;HTU21D;53332;51.082;5.832;2023-07-13T00:39:09;18.49;76.46
66506;HTU21D;53332;51.082;5.832;2023-07-13T00:41:35;18.51;76.62
66506;HTU21D;53332;51.082;5.832;2023-07-13T00:44:02;18.52;76.48
66506;HTU21D;53332;51.082;5.832;2023-07-13T00:46:30;18.50;76.55
66506;HTU21D;53332;51.082;5.832;2023-07-13T00:49:01;18.49;76.76
66506;HTU21D;53332;51.082;5.832;2023-07-13T00:51:36;18.47;77.32
66506;HTU21D;53332;51.082;5.832;2023-07-13T00:54:09;18.46;77.50
66506;HTU21D;53332;51.082;5.832;2023-07-13T00:56:38;18.42;77.77
66506;HTU21D;53332;51.082;5.832;2023-07-13T00:59:07;18.38;77.98
66506;HTU21D;53332;51.082;5.832;2023-07-13T01:01:33;18.35;78.34
66506;HTU21D;53332;51.082;5.832;2023-07-13T01:03:59;18.33;78.53
66506;HTU21D;53332;51.082;5.832;2023-07-13T01:06:25;18.30;78.82
66506;HTU21D;53332;51.082;5.832;2023-07-13T01:08:51;18.29;79.21
66506;HTU21D;53332;51.082;5.832;2023-07-13T01:11:20;18.28;79.61
66506;HTU21D;53332;51.082;5.832;2023-07-13T01:13:47;18.25;79.98
66506;HTU21D;53332;51.082;5.832;2023-07-13T01:16:29;18.21;80.42
66506;HTU21D;53332;51.082;5.832;2023-07-13T01:18:55;18.18;80.81
66506;HTU21D;53332;51.082;5.832;2023-07-13T01:21:25;18.15;81.15
66506;HTU21D;53332;51.082;5.832;2023-07-13T01:23:52;18.17;81.10
66506;HTU21D;53332;51.082;5.832;2023-07-13T01:26:17;18.15;81.26
66506;HTU21D;53332;51.082;5.832;2023-07-13T01:28:43;18.12;81.43
66506;HTU21D;53332;51.082;5.832;2023-07-13T01:31:10;18.07;81.72
66506;HTU21D;53332;51.082;5.832;2023-07-13T01:33:38;18.02;82.13
66506;HTU21D;53332;51.082;5.832;2023-07-13T01:36:08;17.98;82.33
66506;HTU21D;53332;51.082;5.832;2023-07-13T01:38:35;17.92;82.39
66506;HTU21D;53332;51.082;5.832;2023-07-13T01:41:01;17.87;82.49
66506;HTU21D;53332;51.082;5.832;2023-07-13T01:43:27;17.83;82.88
66506;HTU21D;53332;51.082;5.832;2023-07-13T01:45:52;17.80;83.36
66506;HTU21D;53332;51.082;5.832;2023-07-13T01:48:18;17.78;83.65
66506;HTU21D;53332;51.082;5.832;2023-07-13T01:50:44;17.76;84.10
66506;HTU21D;53332;51.082;5.832;2023-07-13T01:53:10;17.74;84.48
66506;HTU21D;53332;51.082;5.832;2023-07-13T01:55:36;17.76;84.92
66506;HTU21D;53332;51.082;5.832;2023-07-13T01:58:03;17.75;85.13
66506;HTU21D;53332;51.082;5.832;2023-07-13T02:00:29;17.72;85.45
66506;HTU21D;53332;51.082;5.832;2023-07-13T02:02:54;17.73;85.83
66506;HTU21D;53332;51.082;5.832;2023-07-13T02:05:20;17.73;86.09
66506;HTU21D;53332;51.082;5.832;2023-07-13T02:07:46;17.72;86.40
66506;HTU21D;53332;51.082;5.832;2023-07-13T02:10:12;17.74;86.32
66506;HTU21D;53332;51.082;5.832;2023-07-13T02:12:38;17.74;86.38
66506;HTU21D;53332;51.082;5.832;2023-07-13T02:15:04;17.73;86.48
66506;HTU21D;53332;51.082;5.832;2023-07-13T02:17:30;17.70;86.77
66506;HTU21D;53332;51.082;5.832;2023-07-13T02:19:55;17.69;86.79
66506;HTU21D;53332;51.082;5.832;2023-07-13T02:22:22;17.73;87.04
66506;HTU21D;53332;51.082;5.832;2023-07-13T02:24:48;17.69;87.09
66506;HTU21D;53332;51.082;5.832;2023-07-13T02:27:13;17.67;87.43
66506;HTU21D;53332;51.082;5.832;2023-07-13T02:29:39;17.66;87.80
66506;HTU21D;53332;51.082;5.832;2023-07-13T02:32:05;17.65;88.22
66506;HTU21D;53332;51.082;5.832;2023-07-13T02:34:31;17.66;88.31
66506;HTU21D;53332;51.082;5.832;2023-07-13T02:36:56;17.65;88.27
66506;HTU21D;53332;51.082;5.832;2023-07-13T02:39:22;17.60;88.64
66506;HTU21D;53332;51.082;5.832;2023-07-13T02:41:47;17.55;89.35
66506;HTU21D;53332;51.082;5.832;2023-07-13T02:44:14;17.51;89.77
66506;HTU21D;53332;51.082;5.832;2023-07-13T02:46:40;17.49;90.20
66506;HTU21D;53332;51.082;5.832;2023-07-13T02:49:06;17.46;90.67
66506;HTU21D;53332;51.082;5.832;2023-07-13T02:51:32;17.44;91.06
66506;HTU21D;53332;51.082;5.832;2023-07-13T02:54:03;17.44;91.46
66506;HTU21D;53332;51.082;5.832;2023-07-13T02:56:31;17.41;91.73
66506;HTU21D;53332;51.082;5.832;2023-07-13T02:58:57;17.40;92.11
66506;HTU21D;53332;51.082;5.832;2023-07-13T03:01:24;17.39;92.25
66506;HTU21D;53332;51.082;5.832;2023-07-13T03:03:51;17.37;92.63
66506;HTU21D;53332;51.082;5.832;2023-07-13T03:06:17;17.36;92.75
66506;HTU21D;53332;51.082;5.832;2023-07-13T03:08:44;17.36;93.01
66506;HTU21D;53332;51.082;5.832;2023-07-13T03:11:18;17.34;93.31
66506;HTU21D;53332;51.082;5.832;2023-07-13T03:13:44;17.35;93.39
66506;HTU21D;53332;51.082;5.832;2023-07-13T03:16:10;17.36;93.51
66506;HTU21D;53332;51.082;5.832;2023-07-13T03:18:37;17.34;93.68
66506;HTU21D;53332;51.082;5.832;2023-07-13T03:21:04;17.32;93.98
66506;HTU21D;53332;51.082;5.832;2023-07-13T03:23:30;17.30;94.30
66506;HTU21D;53332;51.082;5.832;2023-07-13T03:26:05;17.28;94.61
66506;HTU21D;53332;51.082;5.832;2023-07-13T03:28:31;17.24;94.98
66506;HTU21D;53332;51.082;5.832;2023-07-13T03:31:06;17.22;95.36
66506;HTU21D;53332;51.082;5.832;2023-07-13T03:33:31;17.19;95.72
66506;HTU21D;53332;51.082;5.832;2023-07-13T03:35:57;17.16;96.15
66506;HTU21D;53332;51.082;5.832;2023-07-13T03:38:23;17.16;96.23
66506;HTU21D;53332;51.082;5.832;2023-07-13T03:40:49;17.13;96.36
66506;HTU21D;53332;51.082;5.832;2023-07-13T03:43:14;17.07;96.71
66506;HTU21D;53332;51.082;5.832;2023-07-13T03:45:40;17.04;97.22
66506;HTU21D;53332;51.082;5.832;2023-07-13T03:48:06;17.03;97.56
66506;HTU21D;53332;51.082;5.832;2023-07-13T03:50:32;17.02;97.86
66506;HTU21D;53332;51.082;5.832;2023-07-13T03:52:58;17.03;97.98
66506;HTU21D;53332;51.082;5.832;2023-07-13T03:55:24;17.01;98.03
66506;HTU21D;53332;51.082;5.832;2023-07-13T03:57:59;17.00;98.26
66506;HTU21D;53332;51.082;5.832;2023-07-13T04:00:25;16.99;98.58
66506;HTU21D;53332;51.082;5.832;2023-07-13T04:02:51;17.00;98.64
66506;HTU21D;53332;51.082;5.832;2023-07-13T04:05:17;17.00;98.83
66506;HTU21D;53332;51.082;5.832;2023-07-13T04:07:43;17.03;99.01
66506;HTU21D;53332;51.082;5.832;2023-07-13T04:10:09;17.04;98.75
66506;HTU21D;53332;51.082;5.832;2023-07-13T04:12:34;17.03;98.81
66506;HTU21D;53332;51.082;5.832;2023-07-13T04:15:00;17.03;99.06
66506;HTU21D;53332;51.082;5.832;2023-07-13T04:17:26;17.03;99.26
66506;HTU21D;53332;51.082;5.832;2023-07-13T04:19:51;17.03;99.48
66506;HTU21D;53332;51.082;5.832;2023-07-13T04:22:17;17.07;99.31
66506;HTU21D;53332;51.082;5.832;2023-07-13T04:24:42;17.05;99.91
66506;HTU21D;53332;51.082;5.832;2023-07-13T04:27:09;17.04;100.38
66506;HTU21D;53332;51.082;5.832;2023-07-13T04:29:34;17.05;100.61
66506;HTU21D;53332;51.082;5.832;2023-07-13T04:32:00;17.08;100.84
66506;HTU21D;53332;51.082;5.832;2023-07-13T04:34:25;17.09;100.85
66506;HTU21D;53332;51.082;5.832;2023-07-13T04:36:51;17.08;101.25
66506;HTU21D;53332;51.082;5.832;2023-07-13T04:39:17;17.10;101.41
66506;HTU21D;53332;51.082;5.832;2023-07-13T04:41:43;17.13;101.57
66506;HTU21D;53332;51.082;5.832;2023-07-13T04:44:08;17.15;101.60
66506;HTU21D;53332;51.082;5.832;2023-07-13T04:46:34;17.13;101.69
66506;HTU21D;53332;51.082;5.832;2023-07-13T04:48:59;17.14;102.06
66506;HTU21D;53332;51.082;5.832;2023-07-13T04:51:26;17.16;102.03
66506;HTU21D;53332;51.082;5.832;2023-07-13T04:53:52;17.20;102.02
66506;HTU21D;53332;51.082;5.832;2023-07-13T04:56:17;17.22;101.93
66506;HTU21D;53332;51.082;5.832;2023-07-13T04:58:44;17.21;102.38
66506;HTU21D;53332;51.082;5.832;2023-07-13T05:01:10;17.22;102.51
66506;HTU21D;53332;51.082;5.832;2023-07-13T05:03:36;17.21;102.89
66506;HTU21D;53332;51.082;5.832;2023-07-13T05:06:07;17.24;103.12
66506;HTU21D;53332;51.082;5.832;2023-07-13T05:08:35;17.31;102.86
66506;HTU21D;53332;51.082;5.832;2023-07-13T05:11:03;17.36;103.00
66506;HTU21D;53332;51.082;5.832;2023-07-13T05:13:29;17.40;103.02
66506;HTU21D;53332;51.082;5.832;2023-07-13T05:16:02;17.45;102.98
66506;HTU21D;53332;51.082;5.832;2023-07-13T05:18:29;17.46;103.17
66506;HTU21D;53332;51.082;5.832;2023-07-13T05:21:01;17.56;103.33
66506;HTU21D;53332;51.082;5.832;2023-07-13T05:23:27;17.66;102.99
66506;HTU21D;53332;51.082;5.832;2023-07-13T05:25:53;17.74;102.64
66506;HTU21D;53332;51.082;5.832;2023-07-13T05:28:18;17.80;102.08
66506;HTU21D;53332;51.082;5.832;2023-07-13T05:30:48;17.85;101.88
66506;HTU21D;53332;51.082;5.832;2023-07-13T05:33:14;17.88;101.96
66506;HTU21D;53332;51.082;5.832;2023-07-13T05:35:39;17.88;102.05
66506;HTU21D;53332;51.082;5.832;2023-07-13T05:38:05;17.92;101.89
66506;HTU21D;53332;51.082;5.832;2023-07-13T05:40:32;17.95;101.76
66506;HTU21D;53332;51.082;5.832;2023-07-13T05:42:57;18.00;101.66
66506;HTU21D;53332;51.082;5.832;2023-07-13T05:45:23;18.04;101.17
66506;HTU21D;53332;51.082;5.832;2023-07-13T05:47:48;18.04;101.25
66506;HTU21D;53332;51.082;5.832;2023-07-13T05:50:14;18.00;101.21
66506;HTU21D;53332;51.082;5.832;2023-07-13T05:52:39;17.99;101.25
66506;HTU21D;53332;51.082;5.832;2023-07-13T05:55:05;18.03;101.37
66506;HTU21D;53332;51.082;5.832;2023-07-13T05:57:31;18.03;101.61
66506;HTU21D;53332;51.082;5.832;2023-07-13T05:59:57;18.07;101.21
66506;HTU21D;53332;51.082;5.832;2023-07-13T06:02:22;18.00;101.64
66506;HTU21D;53332;51.082;5.832;2023-07-13T06:04:48;18.04;101.67
66506;HTU21D;53332;51.082;5.832;2023-07-13T06:07:14;18.04;101.84
66506;HTU21D;53332;51.082;5.832;2023-07-13T06:09:40;18.02;102.12
66506;HTU21D;53332;51.082;5.832;2023-07-13T06:12:06;18.07;102.23
66506;HTU21D;53332;51.082;5.832;2023-07-13T06:14:32;18.19;102.28
66506;HTU21D;53332;51.082;5.832;2023-07-13T06:16:58;18.27;101.83
66506;HTU21D;53332;51.082;5.832;2023-07-13T06:19:23;18.35;101.53
66506;HTU21D;53332;51.082;5.832;2023-07-13T06:21:49;18.42;100.79
66506;HTU21D;53332;51.082;5.832;2023-07-13T06:24:14;18.37;100.90
66506;HTU21D;53332;51.082;5.832;2023-07-13T06:26:40;18.38;100.98
66506;HTU21D;53332;51.082;5.832;2023-07-13T06:29:05;18.37;101.10
66506;HTU21D;53332;51.082;5.832;2023-07-13T06:31:31;18.35;101.52
66506;HTU21D;53332;51.082;5.832;2023-07-13T06:33:57;18.35;101.59
66506;HTU21D;53332;51.082;5.832;2023-07-13T06:36:22;18.37;101.60
66506;HTU21D;53332;51.082;5.832;2023-07-13T06:38:48;18.43;101.60
66506;HTU21D;53332;51.082;5.832;2023-07-13T06:41:14;18.49;101.75
66506;HTU21D;53332;51.082;5.832;2023-07-13T06:43:39;18.56;101.64
66506;HTU21D;53332;51.082;5.832;2023-07-13T06:46:06;18.59;101.61
66506;HTU21D;53332;51.082;5.832;2023-07-13T06:48:31;18.62;101.39
66506;HTU21D;53332;51.082;5.832;2023-07-13T06:50:57;18.68;101.49
66506;HTU21D;53332;51.082;5.832;2023-07-13T06:53:23;18.72;101.05
66506;HTU21D;53332;51.082;5.832;2023-07-13T06:55:49;18.71;100.38
66506;HTU21D;53332;51.082;5.832;2023-07-13T06:58:16;18.68;100.90
66506;HTU21D;53332;51.082;5.832;2023-07-13T07:00:43;18.65;101.01
66506;HTU21D;53332;51.082;5.832;2023-07-13T07:03:08;18.64;101.22
66506;HTU21D;53332;51.082;5.832;2023-07-13T07:05:34;18.63;101.81
66506;HTU21D;53332;51.082;5.832;2023-07-13T07:07:59;18.72;102.02
66506;HTU21D;53332;51.082;5.832;2023-07-13T07:10:26;18.76;101.86
66506;HTU21D;53332;51.082;5.832;2023-07-13T07:12:52;18.72;101.20
66506;HTU21D;53332;51.082;5.832;2023-07-13T07:15:18;18.70;101.32
66506;HTU21D;53332;51.082;5.832;2023-07-13T07:17:44;18.71;101.41
66506;HTU21D;53332;51.082;5.832;2023-07-13T07:20:10;18.72;101.74
66506;HTU21D;53332;51.082;5.832;2023-07-13T07:22:35;18.71;101.84
66506;HTU21D;53332;51.082;5.832;2023-07-13T07:25:01;18.81;101.96
66506;HTU21D;53332;51.082;5.832;2023-07-13T07:27:27;18.89;101.78
66506;HTU21D;53332;51.082;5.832;2023-07-13T07:29:52;18.96;101.21
66506;HTU21D;53332;51.082;5.832;2023-07-13T07:32:19;19.00;101.22
66506;HTU21D;53332;51.082;5.832;2023-07-13T07:34:45;19.12;101.09
66506;HTU21D;53332;51.082;5.832;2023-07-13T07:37:13;19.16;100.14
66506;HTU21D;53332;51.082;5.832;2023-07-13T07:39:38;19.21;99.68
66506;HTU21D;53332;51.082;5.832;2023-07-13T07:42:04;19.22;99.29
66506;HTU21D;53332;51.082;5.832;2023-07-13T07:44:33;19.22;99.03
66506;HTU21D;53332;51.082;5.832;2023-07-13T07:46:59;19.24;99.62
66506;HTU21D;53332;51.082;5.832;2023-07-13T07:49:25;19.31;99.33
66506;HTU21D;53332;51.082;5.832;2023-07-13T07:51:51;19.38;98.90
66506;HTU21D;53332;51.082;5.832;2023-07-13T07:54:17;19.35;98.42
66506;HTU21D;53332;51.082;5.832;2023-07-13T07:56:42;19.33;98.29
66506;HTU21D;53332;51.082;5.832;2023-07-13T07:59:08;19.38;98.41
66506;HTU21D;53332;51.082;5.832;2023-07-13T08:01:33;19.41;98.11
66506;HTU21D;53332;51.082;5.832;2023-07-13T08:03:59;19.40;97.74
66506;HTU21D;53332;51.082;5.832;2023-07-13T08:06:25;19.40;98.03
66506;HTU21D;53332;51.082;5.832;2023-07-13T08:08:50;19.51;97.90
66506;HTU21D;53332;51.082;5.832;2023-07-13T08:11:16;19.53;97.29
66506;HTU21D;53332;51.082;5.832;2023-07-13T08:13:42;19.59;97.00
66506;HTU21D;53332;51.082;5.832;2023-07-13T08:16:08;19.67;96.48
66506;HTU21D;53332;51.082;5.832;2023-07-13T08:18:33;19.70;95.97
66506;HTU21D;53332;51.082;5.832;2023-07-13T08:21:06;19.83;95.00
66506;HTU21D;53332;51.082;5.832;2023-07-13T08:23:32;19.88;95.45
66506;HTU21D;53332;51.082;5.832;2023-07-13T08:25:57;20.02;95.30
66506;HTU21D;53332;51.082;5.832;2023-07-13T08:28:24;20.10;94.52
66506;HTU21D;53332;51.082;5.832;2023-07-13T08:30:50;20.19;93.83
66506;HTU21D;53332;51.082;5.832;2023-07-13T08:33:21;20.25;92.66
66506;HTU21D;53332;51.082;5.832;2023-07-13T08:35:49;20.30;92.16
66506;HTU21D;53332;51.082;5.832;2023-07-13T08:38:16;20.35;91.42
66506;HTU21D;53332;51.082;5.832;2023-07-13T08:40:43;20.42;90.82
66506;HTU21D;53332;51.082;5.832;2023-07-13T08:43:16;20.42;90.02
66506;HTU21D;53332;51.082;5.832;2023-07-13T08:46:44;20.55;89.95
66506;HTU21D;53332;51.082;5.832;2023-07-13T08:48:55;20.66;88.40
66506;HTU21D;53332;51.082;5.832;2023-07-13T08:51:42;20.78;87.64
66506;HTU21D;53332;51.082;5.832;2023-07-13T08:54:23;20.85;86.95
66506;HTU21D;53332;51.082;5.832;2023-07-13T08:56:51;20.78;86.70
66506;HTU21D;53332;51.082;5.832;2023-07-13T08:59:26;20.75;86.38
66506;HTU21D;53332;51.082;5.832;2023-07-13T09:04:59;20.76;86.35
66506;HTU21D;53332;51.082;5.832;2023-07-13T09:07:33;20.88;86.70
66506;HTU21D;53332;51.082;5.832;2023-07-13T09:15:41;21.33;84.23
66506;HTU21D;53332;51.082;5.832;2023-07-13T09:20:42;21.43;82.11
66506;HTU21D;53332;51.082;5.832;2023-07-13T09:23:14;21.40;82.26
66506;HTU21D;53332;51.082;5.832;2023-07-13T09:25:43;21.60;82.81
66506;HTU21D;53332;51.082;5.832;2023-07-13T09:28:17;21.81;82.58
66506;HTU21D;53332;51.082;5.832;2023-07-13T09:33:30;21.93;79.38
66506;HTU21D;53332;51.082;5.832;2023-07-13T09:35:57;21.94;78.69
66506;HTU21D;53332;51.082;5.832;2023-07-13T09:38:29;21.84;77.96
66506;HTU21D;53332;51.082;5.832;2023-07-13T09:44:01;22.06;77.21
66506;HTU21D;53332;51.082;5.832;2023-07-13T09:46:26;22.05;77.05
66506;HTU21D;53332;51.082;5.832;2023-07-13T09:48:52;22.01;76.83
66506;HTU21D;53332;51.082;5.832;2023-07-13T09:51:18;21.98;76.31
66506;HTU21D;53332;51.082;5.832;2023-07-13T09:53:44;21.99;77.15
66506;HTU21D;53332;51.082;5.832;2023-07-13T09:56:29;22.05;78.08
66506;HTU21D;53332;51.082;5.832;2023-07-13T09:58:56;22.01;77.99
66506;HTU21D;53332;51.082;5.832;2023-07-13T10:01:36;22.01;78.16
66506;HTU21D;53332;51.082;5.832;2023-07-13T10:04:14;21.94;77.39
66506;HTU21D;53332;51.082;5.832;2023-07-13T10:06:41;21.94;76.93
66506;HTU21D;53332;51.082;5.832;2023-07-13T10:09:09;21.95;76.40
66506;HTU21D;53332;51.082;5.832;2023-07-13T10:11:38;22.06;76.60
66506;HTU21D;53332;51.082;5.832;2023-07-13T10:14:15;22.33;76.77
66506;HTU21D;53332;51.082;5.832;2023-07-13T10:16:44;22.62;75.40
66506;HTU21D;53332;51.082;5.832;2023-07-13T10:19:26;22.66;73.46
66506;HTU21D;53332;51.082;5.832;2023-07-13T10:22:00;22.69;73.14
66506;HTU21D;53332;51.082;5.832;2023-07-13T10:24:32;22.73;73.38
66506;HTU21D;53332;51.082;5.832;2023-07-13T10:27:03;22.84;72.32
66506;HTU21D;53332;51.082;5.832;2023-07-13T10:29:35;22.92;71.21
66506;HTU21D;53332;51.082;5.832;2023-07-13T10:32:02;22.86;71.01
66506;HTU21D;53332;51.082;5.832;2023-07-13T10:34:28;22.86;70.73
66506;HTU21D;53332;51.082;5.832;2023-07-13T10:36:54;22.86;70.23
66506;HTU21D;53332;51.082;5.832;2023-07-13T10:39:25;22.83;70.29
66506;HTU21D;53332;51.082;5.832;2023-07-13T10:41:55;22.73;70.28
66506;HTU21D;53332;51.082;5.832;2023-07-13T10:44:27;22.82;70.70
66506;HTU21D;53332;51.082;5.832;2023-07-13T10:46:59;23.01;70.01
66506;HTU21D;53332;51.082;5.832;2023-07-13T10:49:29;23.15;69.08
66506;HTU21D;53332;51.082;5.832;2023-07-13T10:51:56;23.20;68.44
66506;HTU21D;53332;51.082;5.832;2023-07-13T10:54:42;23.25;67.73
66506;HTU21D;53332;51.082;5.832;2023-07-13T10:57:18;23.35;67.27
66506;HTU21D;53332;51.082;5.832;2023-07-13T11:02:28;23.59;64.79
66506;HTU21D;53332;51.082;5.832;2023-07-13T11:04:56;23.70;63.72
66506;HTU21D;53332;51.082;5.832;2023-07-13T11:07:30;23.72;62.72
66506;HTU21D;53332;51.082;5.832;2023-07-13T11:10:05;23.55;62.32
66506;HTU21D;53332;51.082;5.832;2023-07-13T11:12:54;23.52;62.70
66506;HTU21D;53332;51.082;5.832;2023-07-13T11:15:44;23.45;62.57
66506;HTU21D;53332;51.082;5.832;2023-07-13T11:18:22;23.50;60.89
66506;HTU21D;53332;51.082;5.832;2023-07-13T11:20:49;23.43;60.83
66506;HTU21D;53332;51.082;5.832;2023-07-13T11:25:44;23.66;59.61
66506;HTU21D;53332;51.082;5.832;2023-07-13T11:31:00;23.84;57.44
66506;HTU21D;53332;51.082;5.832;2023-07-13T11:33:45;23.84;57.25
66506;HTU21D;53332;51.082;5.832;2023-07-13T11:36:18;23.80;56.73
66506;HTU21D;53332;51.082;5.832;2023-07-13T11:39:00;23.71;56.90
66506;HTU21D;53332;51.082;5.832;2023-07-13T11:41:43;23.73;57.35
66506;HTU21D;53332;51.082;5.832;2023-07-13T11:44:13;23.87;56.58
66506;HTU21D;53332;51.082;5.832;2023-07-13T11:46:48;24.01;55.91
66506;HTU21D;53332;51.082;5.832;2023-07-13T11:49:16;24.04;55.27
66506;HTU21D;53332;51.082;5.832;2023-07-13T11:51:43;24.03;55.45
66506;HTU21D;53332;51.082;5.832;2023-07-13T11:54:31;24.10;56.29
66506;HTU21D;53332;51.082;5.832;2023-07-13T11:57:01;24.02;55.84
66506;HTU21D;53332;51.082;5.832;2023-07-13T11:59:27;23.92;55.49
66506;HTU21D;53332;51.082;5.832;2023-07-13T12:01:55;23.91;55.87
66506;HTU21D;53332;51.082;5.832;2023-07-13T12:04:26;24.02;55.70
66506;HTU21D;53332;51.082;5.832;2023-07-13T12:07:03;24.00;54.46
66506;HTU21D;53332;51.082;5.832;2023-07-13T12:09:29;23.92;54.19
66506;HTU21D;53332;51.082;5.832;2023-07-13T12:11:57;23.94;54.72
66506;HTU21D;53332;51.082;5.832;2023-07-13T12:14:26;23.92;54.82
66506;HTU21D;53332;51.082;5.832;2023-07-13T12:16:53;23.97;55.01
66506;HTU21D;53332;51.082;5.832;2023-07-13T12:19:26;23.92;54.84
66506;HTU21D;53332;51.082;5.832;2023-07-13T12:21:56;24.01;54.86
66506;HTU21D;53332;51.082;5.832;2023-07-13T12:24:23;24.08;55.13
66506;HTU21D;53332;51.082;5.832;2023-07-13T12:27:00;24.11;55.20
66506;HTU21D;53332;51.082;5.832;2023-07-13T12:29:26;24.01;55.17
66506;HTU21D;53332;51.082;5.832;2023-07-13T12:31:53;23.91;55.07
66506;HTU21D;53332;51.082;5.832;2023-07-13T12:34:22;23.91;55.46
66506;HTU21D;53332;51.082;5.832;2023-07-13T12:39:28;24.03;54.55
66506;HTU21D;53332;51.082;5.832;2023-07-13T12:42:27;24.10;54.68
66506;HTU21D;53332;51.082;5.832;2023-07-13T12:47:23;24.21;53.33
66506;HTU21D;53332;51.082;5.832;2023-07-13T12:49:54;24.27;53.14
66506;HTU21D;53332;51.082;5.832;2023-07-13T12:52:24;24.39;53.19
66506;HTU21D;53332;51.082;5.832;2023-07-13T12:55:05;24.41;52.40
66506;HTU21D;53332;51.082;5.832;2023-07-13T12:57:31;24.34;52.23
66506;HTU21D;53332;51.082;5.832;2023-07-13T12:59:57;24.31;51.98
66506;HTU21D;53332;51.082;5.832;2023-07-13T13:02:43;24.23;51.85
66506;HTU21D;53332;51.082;5.832;2023-07-13T13:05:13;24.21;52.57
66506;HTU21D;53332;51.082;5.832;2023-07-13T13:07:39;24.21;52.66
66506;HTU21D;53332;51.082;5.832;2023-07-13T13:10:12;24.20;52.25
66506;HTU21D;53332;51.082;5.832;2023-07-13T13:12:38;24.18;52.36
66506;HTU21D;53332;51.082;5.832;2023-07-13T13:15:04;24.20;52.58
66506;HTU21D;53332;51.082;5.832;2023-07-13T13:17:32;24.20;51.67
66506;HTU21D;53332;51.082;5.832;2023-07-13T13:19:59;24.14;51.43
66506;HTU21D;53332;51.082;5.832;2023-07-13T13:22:24;24.11;51.97
66506;HTU21D;53332;51.082;5.832;2023-07-13T13:24:50;24.15;52.33
66506;HTU21D;53332;51.082;5.832;2023-07-13T13:27:18;24.11;52.41
66506;HTU21D;53332;51.082;5.832;2023-07-13T13:29:44;24.08;52.57
66506;HTU21D;53332;51.082;5.832;2023-07-13T13:32:14;24.09;52.40
66506;HTU21D;53332;51.082;5.832;2023-07-13T13:34:41;23.94;52.29
66506;HTU21D;53332;51.082;5.832;2023-07-13T13:37:20;23.77;52.38
66506;HTU21D;53332;51.082;5.832;2023-07-13T13:39:47;23.61;51.91
66506;HTU21D;53332;51.082;5.832;2023-07-13T13:42:13;23.46;52.19
66506;HTU21D;53332;51.082;5.832;2023-07-13T13:44:40;23.44;52.52
66506;HTU21D;53332;51.082;5.832;2023-07-13T13:47:28;23.50;52.91
66506;HTU21D;53332;51.082;5.832;2023-07-13T13:49:55;23.52;53.26
66506;HTU21D;53332;51.082;5.832;2023-07-13T13:52:20;23.52;53.72
66506;HTU21D;53332;51.082;5.832;2023-07-13T13:54:46;23.44;53.77
66506;HTU21D;53332;51.082;5.832;2023-07-13T13:57:11;23.28;53.81
66506;HTU21D;53332;51.082;5.832;2023-07-13T13:59:38;23.17;54.22
66506;HTU21D;53332;51.082;5.832;2023-07-13T14:02:22;23.01;55.94
66506;HTU21D;53332;51.082;5.832;2023-07-13T14:04:55;22.73;58.05
66506;HTU21D;53332;51.082;5.832;2023-07-13T14:07:21;22.47;60.92
66506;HTU21D;53332;51.082;5.832;2023-07-13T14:09:47;22.19;62.70
66506;HTU21D;53332;51.082;5.832;2023-07-13T14:12:13;22.04;64.74
66506;HTU21D;53332;51.082;5.832;2023-07-13T14:14:39;21.90;66.63
66506;HTU21D;53332;51.082;5.832;2023-07-13T14:17:19;21.83;68.90
66506;HTU21D;53332;51.082;5.832;2023-07-13T14:19:50;21.75;69.99
66506;HTU21D;53332;51.082;5.832;2023-07-13T14:22:20;21.65;69.94
66506;HTU21D;53332;51.082;5.832;2023-07-13T14:24:46;21.51;71.67
66506;HTU21D;53332;51.082;5.832;2023-07-13T14:27:12;21.40;72.25
66506;HTU21D;53332;51.082;5.832;2023-07-13T14:29:39;21.35;73.05
66506;HTU21D;53332;51.082;5.832;2023-07-13T14:32:10;21.27;72.99
66506;HTU21D;53332;51.082;5.832;2023-07-13T14:34:35;21.16;72.79
66506;HTU21D;53332;51.082;5.832;2023-07-13T14:37:01;21.15;73.00
66506;HTU21D;53332;51.082;5.832;2023-07-13T14:39:26;21.08;72.83
66506;HTU21D;53332;51.082;5.832;2023-07-13T14:41:55;21.05;72.90
66506;HTU21D;53332;51.082;5.832;2023-07-13T14:44:25;20.99;73.19
66506;HTU21D;53332;51.082;5.832;2023-07-13T14:46:52;20.95;73.98
66506;HTU21D;53332;51.082;5.832;2023-07-13T14:49:36;20.96;74.25
66506;HTU21D;53332;51.082;5.832;2023-07-13T14:52:22;20.96;74.38
66506;HTU21D;53332;51.082;5.832;2023-07-13T14:54:49;20.98;74.34
66506;HTU21D;53332;51.082;5.832;2023-07-13T14:57:16;21.06;74.89
66506;HTU21D;53332;51.082;5.832;2023-07-13T14:59:44;21.08;74.71
66506;HTU21D;53332;51.082;5.832;2023-07-13T15:02:28;21.15;74.45
66506;HTU21D;53332;51.082;5.832;2023-07-13T15:04:55;21.20;74.46
66506;HTU21D;53332;51.082;5.832;2023-07-13T15:07:22;21.22;73.80
66506;HTU21D;53332;51.082;5.832;2023-07-13T15:09:49;21.23;73.57
66506;HTU21D;53332;51.082;5.832;2023-07-13T15:12:16;21.28;73.41
66506;HTU21D;53332;51.082;5.832;2023-07-13T15:14:42;21.33;72.78
66506;HTU21D;53332;51.082;5.832;2023-07-13T15:17:26;21.36;72.24
66506;HTU21D;53332;51.082;5.832;2023-07-13T15:19:53;21.39;72.25
66506;HTU21D;53332;51.082;5.832;2023-07-13T15:22:19;21.45;71.78
66506;HTU21D;53332;51.082;5.832;2023-07-13T15:24:44;21.50;71.58
66506;HTU21D;53332;51.082;5.832;2023-07-13T15:27:13;21.60;70.32
66506;HTU21D;53332;51.082;5.832;2023-07-13T15:29:38;21.68;69.73
66506;HTU21D;53332;51.082;5.832;2023-07-13T15:32:17;21.77;69.10
66506;HTU21D;53332;51.082;5.832;2023-07-13T15:34:44;21.81;67.78
66506;HTU21D;53332;51.082;5.832;2023-07-13T15:37:14;21.93;67.72
66506;HTU21D;53332;51.082;5.832;2023-07-13T15:39:41;22.02;67.18
66506;HTU21D;53332;51.082;5.832;2023-07-13T15:42:15;22.12;66.19
66506;HTU21D;53332;51.082;5.832;2023-07-13T15:44:42;22.20;65.19
66506;HTU21D;53332;51.082;5.832;2023-07-13T15:47:14;22.28;64.81
66506;HTU21D;53332;51.082;5.832;2023-07-13T15:49:42;22.36;63.89
66506;HTU21D;53332;51.082;5.832;2023-07-13T15:52:19;22.44;63.11